Vers la page d'accueil de NAV CANADA Ouverture d'une nouvelle session Chercher sur le site AWWS Clause de non-reponsabilité To the equivalent English page Trucs et astuces FAQ Quoi de neuf sur le site Vers la section Prévisions et observations / NOTAM Vers le site web pour <<Déposer un plan de vol>> Publications et liens importants Mise à jour du profil d'usager Numéros de téléphone des FIC Mes données météo personnelles Données météo de route Données météo régionales Données météo locales Vers la section Prévisions et observations / NOTAM
Requête générée le 2021/04/12 à 04:31:27 UTC. L'information météorologique disponible à ce moment est affichée.

METAR/TAF

Si vous notez des différences entre le METAR/TAF codé et le METAR/TAF en langage clair, veuillez utiliser la version codée. Les bulletins LWIS ne sont pas décodés en langage clair.

OTTAWA/GATINEAU/QC    

LWIS CYND 120400Z AUTO 07011KT 13/M02 A2970=

LWIS CYND 120300Z AUTO 07009G15KT 13/M03 A2970=

LWIS CYND 120200Z AUTO 07009KT 13/M03 A2969=

*** REMARQUE : La période de prévision est échue; ceci était le dernier TAF qui a été émis
TAF CYND 111738Z 1118/1201 08012G22KT P6SM FEW100 BKN200 FM112100 08012G22KT P6SM BKN100 BKN200 RMK NXT FCST WILL BE ISSUED AT 121245Z=
TAF
LIEU

CYND - OTTAWA/GATINEAU/QC
VALIDITE [UTC]
11 APR - 1738 à
12 APR - 0100
 
PERIODES
[UTC]
VENT
[DEGRES VRAIS]
VISIBILITE
[MILLES TERR.]
METEO
NEBULOSITE
[PIEDS AGL]
 
11 APR - 1800 à
11 APR - 2100
80 @ 12 NOEUDS
RAFALES 22 NOEUDS
6+
---
10000 QUELQUES
20000 FRAGMENTES
 
11 APR - 2100 à
12 APR - 0100
80 @ 12 NOEUDS
RAFALES 22 NOEUDS
6+
---
10000 FRAGMENTES
20000 FRAGMENTES
REMARQUES
LA PREVISION SUIVANTE SERA EMISE A 1245 UTC LE 12


Votre heure Heure UTC
Données météorologiques fournies par Environnement Canada et NAV CANADA